Time;durP1;ratioP1;P1;durP2;ratioP2;P2;SDS_P1;SDS_P2;PMS_P1;PMS_P2;Temp;Humidity;BMP_temperature;BMP_pressure;BME280_temperature;BME280_humidity;BME280_pressure;Samples;Min_cycle;Max_cycle;Signal;HPM_P1;HPM_P2
2021/10/25 00:01:53;;;;;;;8.73;3.35;;;;;;;6.50;59.20;102020.33;1642106;87;21210;-60
2021/10/25 00:04:59;;;;;;;5.83;3.10;;;;;;;6.46;59.25;102024.27;1682099;85;21256;-59
2021/10/25 00:08:04;;;;;;;4.08;2.65;;;;;;;6.44;59.35;102024.02;1653918;87;21335;-59
2021/10/25 00:11:13;;;;;;;4.17;2.30;;;;;;;6.41;59.58;102035.96;1642127;87;21210;-58
2021/10/25 00:14:18;;;;;;;3.90;2.40;;;;;;;6.42;59.54;102038.20;1682314;85;21545;-60
2021/10/25 00:17:25;;;;;;;6.15;2.25;;;;;;;6.40;59.65;102038.31;1653960;87;21338;-59
2021/10/25 00:20:30;;;;;;;7.33;3.58;;;;;;;6.39;59.83;102044.72;1642360;87;21212;-58
2021/10/25 00:23:38;;;;;;;8.10;3.77;;;;;;;6.39;60.10;102047.44;1682236;85;21737;-58
2021/10/25 00:26:44;;;;;;;4.90;3.10;;;;;;;6.40;60.42;102050.55;1653964;87;21240;-60
2021/10/25 00:29:51;;;;;;;4.30;2.50;;;;;;;6.42;60.84;102049.97;1642641;87;21278;-58
2021/10/25 00:32:56;;;;;;;3.17;2.10;;;;;;;6.45;61.30;102052.47;1682335;82;21229;-58
2021/10/25 00:36:02;;;;;;;3.08;2.15;;;;;;;6.43;61.74;102048.09;1647059;87;21205;-59
2021/10/25 00:39:09;;;;;;;3.20;2.12;;;;;;;6.41;62.08;102050.05;1632289;87;21243;-58
2021/10/25 00:42:16;;;;;;;3.50;2.00;;;;;;;6.41;62.45;102057.72;1631580;87;21761;-59
2021/10/25 00:45:22;;;;;;;3.92;2.33;;;;;;;6.41;62.75;102052.77;1630585;88;21591;-59
2021/10/25 00:48:27;;;;;;;4.17;2.60;;;;;;;6.35;62.92;102064.97;1630473;88;21255;-59
2021/10/25 00:51:32;;;;;;;3.85;2.80;;;;;;;6.29;63.25;102061.32;1630489;88;21189;-58
2021/10/25 00:54:40;;;;;;;2.98;2.17;;;;;;;6.24;63.54;102066.20;1630465;88;21231;-58
2021/10/25 00:57:46;;;;;;;4.33;2.30;;;;;;;6.18;63.82;102073.44;1630499;88;21755;-59
2021/10/25 01:00:53;;;;;;;3.65;2.10;;;;;;;6.13;64.12;102075.59;1631217;87;21212;-58
2021/10/25 01:04:01;;;;;;;2.33;1.90;;;;;;;6.08;64.36;102074.56;1630542;87;21239;-58
2021/10/25 01:07:07;;;;;;;4.00;2.35;;;;;;;6.07;64.53;102076.88;1630525;88;21254;-59
2021/10/25 01:10:15;;;;;;;2.87;2.00;;;;;;;6.06;64.68;102078.34;1630631;86;21209;-59
2021/10/25 01:13:22;;;;;;;6.12;2.27;;;;;;;6.02;64.80;102083.63;1630625;88;21335;-59
2021/10/25 01:16:28;;;;;;;5.62;2.45;;;;;;;5.99;64.88;102076.53;1630924;87;21681;-58
2021/10/25 01:19:34;;;;;;;2.15;1.65;;;;;;;5.99;64.85;102074.33;1630556;88;21287;-59
2021/10/25 01:22:40;;;;;;;3.75;1.95;;;;;;;5.97;64.77;102088.50;1630777;88;21216;-60
2021/10/25 01:25:47;;;;;;;3.72;2.00;;;;;;;5.92;64.74;102086.58;1630543;88;21232;-59
2021/10/25 01:28:55;;;;;;;4.17;2.37;;;;;;;5.87;64.74;102090.09;1630442;88;21252;-58
2021/10/25 01:32:01;;;;;;;7.60;2.80;;;;;;;5.82;64.88;102090.41;1610403;88;21814;-59
2021/10/25 01:35:07;;;;;;;3.60;2.12;;;;;;;5.76;65.05;102091.28;1633287;86;21237;-59
2021/10/25 01:38:12;;;;;;;3.08;2.12;;;;;;;5.71;65.27;102090.70;1684400;85;21362;-59
2021/10/25 01:41:18;;;;;;;3.22;2.02;;;;;;;5.67;65.28;102093.27;1653719;87;21261;-59
2021/10/25 01:44:25;;;;;;;4.58;2.40;;;;;;;5.60;65.32;102095.99;1630306;87;21855;-59
2021/10/25 01:47:31;;;;;;;2.33;1.82;;;;;;;5.53;65.44;102095.56;1684389;85;21414;-59
2021/10/25 01:50:37;;;;;;;5.67;2.40;;;;;;;5.47;65.58;102096.45;1653853;87;21208;-59
2021/10/25 01:53:45;;;;;;;7.08;2.20;;;;;;;5.40;65.76;102100.53;1630100;87;21354;-58
2021/10/25 01:56:52;;;;;;;4.55;2.30;;;;;;;5.32;65.92;102104.23;1684493;85;21355;-58
2021/10/25 01:59:58;;;;;;;3.40;2.22;;;;;;;5.23;66.11;102118.42;1653679;87;21304;-57
2021/10/25 02:03:07;;;;;;;2.90;2.12;;;;;;;5.13;66.36;102112.70;1625462;87;21307;-57
2021/10/25 02:06:15;;;;;;;8.45;3.17;;;;;;;5.04;66.60;102119.22;1625243;88;21375;-58
2021/10/25 02:09:20;;;;;;;4.92;2.98;;;;;;;4.92;66.89;102119.98;1634801;87;21235;-59
2021/10/25 02:12:26;;;;;;;6.90;2.90;;;;;;;4.83;67.14;102130.06;1634782;88;21219;-59
2021/10/25 02:15:32;;;;;;;6.40;3.02;;;;;;;4.73;67.44;102132.48;1634829;88;21215;-58
2021/10/25 02:18:41;;;;;;;5.00;3.00;;;;;;;4.63;67.66;102132.19;1639258;87;21247;-59
2021/10/25 02:21:48;;;;;;;4.08;2.58;;;;;;;4.55;67.84;102143.99;1684415;85;21383;-58
2021/10/25 02:24:53;;;;;;;3.50;1.85;;;;;;;4.45;68.02;102145.55;1653171;87;21243;-60
2021/10/25 02:27:59;;;;;;;4.80;2.08;;;;;;;4.39;68.07;102140.47;1630206;87;21327;-60
2021/10/25 02:31:05;;;;;;;3.72;2.47;;;;;;;4.31;68.06;102139.22;1684414;85;21232;-59
2021/10/25 02:34:12;;;;;;;4.87;2.30;;;;;;;4.25;67.98;102135.52;1653788;87;21782;-58
2021/10/25 02:37:17;;;;;;;3.20;2.33;;;;;;;4.17;67.99;102141.89;1631655;84;21402;-59
2021/10/25 02:40:23;;;;;;;3.70;2.55;;;;;;;4.10;67.95;102148.63;1627811;88;21211;-58
2021/10/25 02:43:29;;;;;;;5.17;2.45;;;;;;;4.01;68.00;102159.52;1592048;90;21259;-59
2021/10/25 02:46:34;;;;;;;5.72;2.98;;;;;;;3.92;68.07;102158.72;1627375;88;21305;-60
2021/10/25 02:49:40;;;;;;;4.62;2.30;;;;;;;3.86;68.18;102160.44;1630040;87;21370;-60
2021/10/25 02:52:47;;;;;;;7.92;3.27;;;;;;;3.78;68.22;102168.14;1627222;87;21884;-58
2021/10/25 02:55:54;;;;;;;4.72;2.75;;;;;;;3.69;68.37;102175.45;1627479;88;21203;-59
2021/10/25 02:59:08;;;;;;;4.95;3.37;;;;;;;3.61;68.56;102173.66;1628803;87;21225;-59
2021/10/25 03:02:11;;;;;;;5.58;3.47;;;;;;;3.55;68.73;102169.92;1592041;90;21352;-59
2021/10/25 03:05:17;;;;;;;5.17;2.50;;;;;;;3.52;68.90;102176.02;1609965;88;21205;-59
2021/10/25 03:08:23;;;;;;;6.15;3.17;;;;;;;3.48;68.89;102185.27;1591996;90;21236;-59
2021/10/25 03:11:30;;;;;;;5.90;2.70;;;;;;;3.41;68.77;102182.02;1627726;88;21260;-58
2021/10/25 03:14:36;;;;;;;4.72;2.90;;;;;;;3.35;68.79;102189.14;1591981;90;21403;-58
2021/10/25 03:17:44;;;;;;;4.53;3.05;;;;;;;3.29;68.78;102200.31;1627722;88;21867;-58
2021/10/25 03:20:52;;;;;;;5.78;2.58;;;;;;;3.22;68.85;102193.98;1627872;88;21354;-57
2021/10/25 03:24:00;;;;;;;4.67;2.72;;;;;;;3.18;68.91;102196.45;1627738;87;21216;-58
2021/10/25 03:27:06;;;;;;;4.83;2.70;;;;;;;3.14;69.02;102190.33;1591957;90;21427;-58
2021/10/25 03:30:14;;;;;;;5.20;2.22;;;;;;;3.12;69.03;102194.97;1627378;88;21240;-57
2021/10/25 03:33:22;;;;;;;4.65;2.75;;;;;;;3.07;68.99;102191.64;1627742;88;21255;-58
2021/10/25 03:36:35;;;;;;;4.50;2.47;;;;;;;3.01;68.96;102189.28;1601302;84;21406;-58
2021/10/25 03:39:44;;;;;;;4.35;3.10;;;;;;;2.97;68.90;102190.38;1677303;85;21422;-56
2021/10/25 03:42:51;;;;;;;4.97;3.33;;;;;;;2.93;68.82;102188.31;1655982;86;21209;-56
2021/10/25 03:46:12;;;;;;;3.95;3.00;;;;;;;2.89;68.68;102189.92;1677393;85;21205;-56
2021/10/25 03:52:32;;;;;;;3.30;2.60;;;;;;;2.76;68.60;102201.00;1624945;86;21827;-57
2021/10/25 04:28:41;;;;;;;11.97;3.55;;;;;;;2.38;68.91;102241.35;1685470;84;20570;-56
2021/10/25 04:31:46;;;;;;;5.58;3.05;;;;;;;2.33;68.96;102251.02;1716683;83;21357;-55
2021/10/25 04:34:53;;;;;;;6.37;3.00;;;;;;;2.31;68.96;102256.12;1661801;85;21217;-56
2021/10/25 04:38:17;;;;;;;5.55;2.90;;;;;;;2.30;68.94;102263.84;1688663;83;21216;-57
2021/10/25 04:41:24;;;;;;;8.53;4.03;;;;;;;2.30;68.99;102273.30;1688442;85;21268;-56
2021/10/25 04:44:32;;;;;;;12.35;6.22;;;;;;;2.26;68.91;102284.72;1688055;85;21651;-57
2021/10/25 04:47:37;;;;;;;13.03;7.35;;;;;;;2.23;68.94;102282.64;1703940;83;21851;-57
2021/10/25 04:50:46;;;;;;;14.55;6.80;;;;;;;2.21;68.97;102289.94;1694303;83;21231;-56
2021/10/25 04:54:05;;;;;;;8.40;4.65;;;;;;;2.18;69.10;102299.55;1685612;83;21803;-56
2021/10/25 04:57:16;;;;;;;8.98;4.25;;;;;;;2.17;69.20;102304.57;1717827;83;21184;-56
2021/10/25 05:00:23;;;;;;;10.68;4.00;;;;;;;2.16;69.30;102304.14;1673820;85;21367;-57
2021/10/25 05:03:29;;;;;;;10.85;5.92;;;;;;;2.17;69.39;102312.67;1708006;84;21247;-57
2021/10/25 05:06:36;;;;;;;7.65;4.08;;;;;;;2.17;69.42;102309.97;1718232;83;21195;-56
2021/10/25 05:09:40;;;;;;;8.25;5.03;;;;;;;2.20;69.50;102315.22;1697539;84;21573;-58
2021/10/25 05:12:46;;;;;;;6.03;3.98;;;;;;;2.22;69.50;102319.58;1699845;83;21734;-58
2021/10/25 05:15:52;;;;;;;6.45;3.75;;;;;;;2.24;69.48;102316.80;1702812;82;21216;-53
2021/10/25 05:18:57;;;;;;;6.30;3.27;;;;;;;2.26;69.53;102321.66;1702364;81;21226;-57
2021/10/25 05:22:06;;;;;;;7.03;4.08;;;;;;;2.26;69.57;102325.72;1695153;84;21230;-57
2021/10/25 05:25:12;;;;;;;9.68;4.12;;;;;;;2.30;69.65;102325.98;1709368;84;21266;-58
2021/10/25 05:28:17;;;;;;;8.43;4.70;;;;;;;2.34;69.73;102331.16;1698386;82;21215;-54
2021/10/25 05:31:23;;;;;;;6.37;4.28;;;;;;;2.42;69.79;102334.35;1717623;82;21572;-58
2021/10/25 05:34:29;;;;;;;6.70;3.50;;;;;;;2.52;69.80;102344.23;1718314;83;22037;-58
2021/10/25 05:37:34;;;;;;;6.22;3.27;;;;;;;2.60;69.79;102346.92;1708483;84;21192;-60
2021/10/25 05:40:40;;;;;;;6.95;3.10;;;;;;;2.72;69.77;102357.61;1708609;82;21370;-59
2021/10/25 05:43:46;;;;;;;4.78;2.85;;;;;;;2.79;69.64;102355.00;1709268;84;21812;-58
2021/10/25 05:47:00;;;;;;;5.25;2.72;;;;;;;2.87;69.51;102356.84;1729251;82;21197;-59
2021/10/25 05:50:08;;;;;;;4.45;2.77;;;;;;;2.95;69.42;102353.23;1712846;81;21296;-58
2021/10/25 05:53:13;;;;;;;8.35;4.62;;;;;;;3.02;69.31;102360.98;1708493;84;21212;-59
2021/10/25 05:56:20;;;;;;;8.63;2.90;;;;;;;3.09;69.29;102356.98;1708298;84;21216;-60
2021/10/25 05:59:26;;;;;;;5.22;2.67;;;;;;;3.18;69.33;102362.86;1708229;84;21224;-59
2021/10/25 06:02:35;;;;;;;5.30;3.27;;;;;;;3.26;69.15;102361.98;1682831;85;21204;-59
2021/10/25 06:05:41;;;;;;;9.10;3.30;;;;;;;3.30;68.96;102368.50;1706397;84;21502;-59
2021/10/25 06:08:49;;;;;;;6.50;4.08;;;;;;;3.37;68.87;102369.94;1710313;82;21365;-59
2021/10/25 06:11:55;;;;;;;7.08;3.75;;;;;;;3.38;68.77;102379.80;1706644;84;21200;-59
2021/10/25 06:15:08;;;;;;;8.73;4.35;;;;;;;3.40;68.78;102377.01;1702803;84;21195;-59
2021/10/25 06:18:10;;;;;;;9.38;4.50;;;;;;;3.41;68.65;102381.48;1699744;84;21212;-59
2021/10/25 06:21:17;;;;;;;11.25;4.55;;;;;;;3.43;68.62;102385.84;1706927;84;21687;-60
2021/10/25 06:24:22;;;;;;;8.53;4.30;;;;;;;3.45;68.71;102387.12;1701929;83;21266;-59
2021/10/25 06:27:31;;;;;;;6.72;3.65;;;;;;;3.52;68.54;102387.20;1710945;83;21817;-54
2021/10/25 06:30:37;;;;;;;10.60;4.62;;;;;;;3.52;68.41;102392.12;1706046;84;21251;-55
2021/10/25 06:33:47;;;;;;;7.40;4.00;;;;;;;3.55;68.47;102391.95;1708390;82;21259;-54
2021/10/25 06:37:10;;;;;;;5.97;3.08;;;;;;;3.58;68.43;102390.93;1709299;84;21729;-55
2021/10/25 06:40:23;;;;;;;6.87;3.33;;;;;;;3.62;68.38;102396.09;1711503;80;21374;-54
2021/10/25 06:43:32;;;;;;;6.35;3.35;;;;;;;3.69;68.33;102392.58;1716079;83;21362;-54
2021/10/25 06:46:43;;;;;;;5.83;3.22;;;;;;;3.76;68.15;102398.92;1716495;83;21923;-58
2021/10/25 06:49:47;;;;;;;6.47;3.35;;;;;;;3.83;67.94;102394.94;1718946;81;21222;-58
2021/10/25 06:52:53;;;;;;;6.17;3.42;;;;;;;3.91;67.79;102399.46;1697687;82;21212;-56
2021/10/25 06:56:08;;;;;;;6.67;3.33;;;;;;;4.01;67.78;102389.84;1714834;82;21569;-56
2021/10/25 06:59:14;;;;;;;5.72;2.87;;;;;;;4.13;67.34;102391.89;1714921;82;21397;-55
2021/10/25 07:02:20;;;;;;;9.78;3.17;;;;;;;4.24;66.79;102400.29;1716554;83;21199;-55
2021/10/25 07:05:34;;;;;;;11.90;4.33;;;;;;;4.32;66.11;102399.37;1712411;83;21218;-59
2021/10/25 07:08:38;;;;;;;13.28;3.77;;;;;;;4.43;65.46;102394.22;1710357;83;21295;-58
2021/10/25 07:11:45;;;;;;;7.28;2.95;;;;;;;4.58;64.21;102410.09;1709168;83;21211;-59
2021/10/25 07:14:56;;;;;;;8.30;2.62;;;;;;;4.67;62.77;102399.17;1713560;83;21238;-57
2021/10/25 07:18:16;;;;;;;8.25;4.25;;;;;;;4.75;61.94;102400.96;1713087;82;21191;-60
2021/10/25 08:08:57;;;;;;;8.73;2.58;;;;;;;5.79;54.88;102412.62;1687903;84;21250;-63
2021/10/25 08:12:05;;;;;;;7.80;2.62;;;;;;;5.88;54.30;102410.70;1684613;83;21227;-61
2021/10/25 08:15:10;;;;;;;6.72;2.00;;;;;;;5.99;54.09;102419.56;1714410;82;21733;-61
2021/10/25 08:18:30;;;;;;;4.95;1.82;;;;;;;6.06;53.15;102417.70;1660165;85;21767;-62
2021/10/25 08:21:22;;;;;;;3.90;1.57;;;;;;;6.13;52.32;102416.84;1695922;84;21838;-62
2021/10/25 08:24:29;;;;;;;5.83;1.85;;;;;;;6.21;52.66;102413.14;1704677;84;21480;-62
2021/10/25 08:27:42;;;;;;;6.85;1.70;;;;;;;6.28;50.96;102425.36;1691201;84;21185;-62
2021/10/25 08:30:48;;;;;;;3.83;1.42;;;;;;;6.33;48.63;102425.94;1699834;84;21206;-61
2021/10/25 08:34:26;;;;;;;3.85;1.90;;;;;;;6.39;47.48;102426.05;1698714;84;21226;-61
2021/10/25 08:40:16;;;;;;;1.95;1.15;;;;;;;6.48;47.27;102424.96;1705027;84;21338;-61
2021/10/25 08:43:20;;;;;;;6.42;2.37;;;;;;;6.52;46.43;102427.85;1700744;82;21863;-62
2021/10/25 08:46:29;;;;;;;2.52;1.35;;;;;;;6.56;46.44;102432.14;1710456;83;21425;-60
2021/10/25 08:49:34;;;;;;;4.62;1.35;;;;;;;6.64;46.07;102424.83;1699228;84;21338;-60
2021/10/25 08:52:40;;;;;;;8.03;1.77;;;;;;;6.63;45.89;102425.81;1706408;84;21326;-62
2021/10/25 08:55:52;;;;;;;4.40;1.62;;;;;;;6.66;45.95;102426.45;1696623;83;21209;-60
2021/10/25 08:59:06;;;;;;;12.10;4.75;;;;;;;6.76;45.81;102424.89;1642602;86;21779;-61
2021/10/25 09:02:16;;;;;;;10.78;4.08;;;;;;;6.81;45.18;102426.82;1655783;85;21273;-61
2021/10/25 09:05:24;;;;;;;4.58;2.40;;;;;;;6.84;45.37;102423.01;1680981;85;21201;-60
2021/10/25 09:08:30;;;;;;;6.53;1.42;;;;;;;6.89;45.11;102421.74;1691210;83;21307;-60
2021/10/25 09:11:37;;;;;;;3.52;1.70;;;;;;;6.93;44.40;102438.75;1690400;85;21219;-60
2021/10/25 09:14:43;;;;;;;2.95;1.60;;;;;;;6.95;44.28;102413.63;1684692;84;21200;-60
2021/10/25 09:17:49;;;;;;;3.77;1.80;;;;;;;6.98;44.72;102426.56;1683194;84;21207;-60
2021/10/25 09:21:01;;;;;;;3.85;1.77;;;;;;;7.01;43.98;102419.54;1685944;83;21851;-61
2021/10/25 09:24:06;;;;;;;5.25;2.83;;;;;;;7.06;44.17;102422.83;1694887;84;21752;-61
2021/10/25 09:27:13;;;;;;;4.47;2.30;;;;;;;7.10;44.16;102419.42;1692934;84;21251;-61
2021/10/25 09:30:22;;;;;;;20.88;9.78;;;;;;;7.19;44.67;102415.58;1697350;84;21758;-61
2021/10/25 09:33:39;;;;;;;12.03;3.90;;;;;;;7.32;44.62;102415.61;1701243;84;21224;-62
2021/10/25 09:36:51;;;;;;;7.25;3.35;;;;;;;7.36;43.55;102403.03;1698886;84;21338;-62
2021/10/25 09:40:02;;;;;;;3.52;1.42;;;;;;;7.35;43.69;102408.11;1683929;84;21206;-63
2021/10/25 09:43:25;;;;;;;26.93;13.35;;;;;;;7.39;43.79;102401.45;1646342;83;21256;-62
2021/10/25 09:50:01;;;;;;;4.12;2.77;;;;;;;7.59;42.98;102406.37;1579989;89;21828;-61
2021/10/25 09:53:10;;;;;;;3.90;1.82;;;;;;;7.63;42.39;102398.38;1638453;86;21880;-62
2021/10/25 09:56:16;;;;;;;4.30;1.67;;;;;;;7.66;42.06;102400.00;1644706;86;21297;-60
2021/10/25 09:59:54;;;;;;;4.50;1.25;;;;;;;7.69;41.80;102404.39;1670225;84;21618;-63
2021/10/25 10:02:42;;;;;;;2.15;1.10;;;;;;;7.69;41.71;102413.92;1669294;84;21221;-60
2021/10/25 10:05:50;;;;;;;25.32;10.53;;;;;;;7.70;41.55;102406.12;1676036;85;21303;-60
2021/10/25 10:09:02;;;;;;;4.58;1.92;;;;;;;7.71;41.83;102411.98;1675479;84;21855;-61
2021/10/25 10:12:08;;;;;;;7.00;1.80;;;;;;;7.83;42.25;102410.61;1675201;85;21193;-61
2021/10/25 10:15:20;;;;;;;4.10;2.25;;;;;;;7.93;41.84;102406.74;1635687;85;21220;-62
2021/10/25 10:18:30;;;;;;;3.72;1.60;;;;;;;8.04;41.80;102406.84;1660031;85;21241;-56
2021/10/25 10:21:40;;;;;;;3.65;1.30;;;;;;;8.13;41.71;102404.80;1668461;85;21268;-61
2021/10/25 10:24:46;;;;;;;10.32;3.02;;;;;;;8.31;42.59;102413.06;1673645;85;21252;-60
2021/10/25 10:27:52;;;;;;;6.90;2.30;;;;;;;8.40;41.34;102405.56;1649893;85;21221;-61
2021/10/25 10:31:09;;;;;;;5.28;2.20;;;;;;;8.49;41.66;102407.60;1659793;84;21232;-61
2021/10/25 10:34:32;;;;;;;4.20;2.20;;;;;;;8.57;40.87;102403.81;1664871;85;21750;-60
2021/10/25 10:37:41;;;;;;;6.30;1.80;;;;;;;8.57;40.30;102405.18;1672419;85;21838;-59
2021/10/25 10:40:50;;;;;;;3.52;1.80;;;;;;;8.61;40.65;102393.06;1666558;85;21777;-59
2021/10/25 10:44:14;;;;;;;12.95;1.92;;;;;;;8.73;41.10;102398.96;1670537;82;21236;-58
2021/10/25 10:47:23;;;;;;;;;;;;;;;8.92;41.28;102396.59;1698878;82;21392;-60
2021/10/25 10:50:41;;;;;;;5.08;2.12;;;;;;;9.04;39.99;102391.55;1708331;83;20252;-58
2021/10/25 10:54:22;;;;;;;1.92;1.20;;;;;;;9.05;39.75;102391.42;1652859;85;21738;-59
2021/10/25 10:57:08;;;;;;;3.77;1.82;;;;;;;9.14;40.21;102391.23;1695423;83;21192;-60
2021/10/25 11:00:09;;;;;;;3.85;1.45;;;;;;;9.25;39.60;102384.92;1653631;83;21245;-59
2021/10/25 11:03:28;;;;;;;4.85;2.00;;;;;;;9.29;39.52;102383.23;1627970;86;21248;-60
2021/10/25 11:06:41;;;;;;;2.52;1.40;;;;;;;9.31;39.14;102388.06;1649898;85;21204;-59
2021/10/25 11:09:49;;;;;;;1.85;1.00;;;;;;;9.36;38.78;102383.59;1632664;86;21742;-59
2021/10/25 11:13:01;;;;;;;3.08;1.40;;;;;;;9.37;38.25;102386.72;1644741;86;21218;-59
2021/10/25 11:16:16;;;;;;;5.17;2.05;;;;;;;9.37;38.30;102389.45;1655367;85;21998;-59
2021/10/25 11:19:22;;;;;;;1.87;1.30;;;;;;;9.40;38.72;102384.63;1647577;85;21804;-59
2021/10/25 11:22:39;;;;;;;1.65;1.00;;;;;;;9.59;38.15;102392.25;1645624;86;21300;-58
2021/10/25 11:25:50;;;;;;;1.20;0.82;;;;;;;9.66;37.62;102376.60;1631085;87;21198;-59
2021/10/25 11:29:21;;;;;;;5.67;1.30;;;;;;;9.71;37.12;102381.70;1646476;85;21348;-58
2021/10/25 11:32:31;;;;;;;5.12;2.10;;;;;;;9.68;37.00;102388.30;1645069;86;21209;-61
2021/10/25 11:35:36;;;;;;;4.67;1.57;;;;;;;9.82;38.04;102390.81;1645010;86;21198;-60
2021/10/25 11:38:45;;;;;;;3.70;1.32;;;;;;;10.00;37.35;102387.98;1621085;85;21225;-57
2021/10/25 11:41:54;;;;;;;4.90;1.50;;;;;;;10.06;37.02;102382.00;1646023;86;21198;-59
2021/10/25 11:45:08;;;;;;;10.78;3.10;;;;;;;10.17;36.67;102375.69;1625693;85;21627;-60
2021/10/25 11:48:14;;;;;;;10.55;3.67;;;;;;;10.22;36.72;102378.92;1640758;87;21225;-59
2021/10/25 11:51:20;;;;;;;5.97;2.50;;;;;;;10.29;36.72;102361.86;1649466;86;21280;-59
2021/10/25 11:54:27;;;;;;;3.42;1.60;;;;;;;10.38;36.46;102365.72;1657918;86;21597;-59
2021/10/25 11:57:33;;;;;;;8.05;2.90;;;;;;;10.42;35.99;102362.60;1667628;86;21578;-59
2021/10/25 12:00:43;;;;;;;7.33;2.20;;;;;;;10.44;36.20;102360.62;1640066;86;21221;-58
2021/10/25 12:03:50;;;;;;;2.80;1.57;;;;;;;10.53;36.04;102360.33;1656918;85;21597;-58
2021/10/25 12:07:06;;;;;;;4.62;1.82;;;;;;;10.58;35.65;102357.59;1685916;85;21217;-57
2021/10/25 12:10:13;;;;;;;4.00;1.70;;;;;;;10.58;35.58;102364.09;1644862;86;21229;-59
2021/10/25 12:13:19;;;;;;;6.80;1.95;;;;;;;10.61;35.52;102356.98;1696098;83;21749;-57
2021/10/25 12:16:25;;;;;;;3.42;1.52;;;;;;;10.59;35.26;102356.59;1672133;85;21551;-59
2021/10/25 12:19:33;;;;;;;2.92;1.50;;;;;;;10.58;35.55;102369.56;1708241;82;21210;-59
2021/10/25 12:22:38;;;;;;;3.42;2.05;;;;;;;10.51;35.59;102361.83;1708756;84;21718;-57
2021/10/25 12:25:47;;;;;;;4.72;2.37;;;;;;;10.58;35.78;102361.34;1717378;83;21203;-59
2021/10/25 12:28:53;;;;;;;8.80;2.80;;;;;;;10.71;36.01;102355.19;1679904;84;21276;-54
2021/10/25 12:31:59;;;;;;;12.15;6.60;;;;;;;10.87;36.38;102351.05;1700109;83;21243;-54
2021/10/25 12:35:05;;;;;;;20.08;9.35;;;;;;;10.94;35.98;102373.32;1709093;82;21297;-55
2021/10/25 12:38:14;;;;;;;13.45;6.00;;;;;;;10.86;35.58;102373.94;1707436;84;21230;-55
2021/10/25 12:41:21;;;;;;;12.20;5.67;;;;;;;10.74;35.39;102375.48;1662167;85;21225;-54
2021/10/25 12:44:40;;;;;;;5.85;2.83;;;;;;;10.61;35.76;102376.16;1707746;84;21753;-54
2021/10/25 12:47:44;;;;;;;20.60;11.12;;;;;;;10.58;35.92;102372.66;1703887;82;21725;-54
2021/10/25 12:50:52;;;;;;;8.95;3.20;;;;;;;10.66;35.98;102369.28;1702345;84;21188;-54
2021/10/25 12:53:58;;;;;;;5.90;2.90;;;;;;;10.75;36.34;102373.97;1708249;84;21319;-55
2021/10/25 12:57:05;;;;;;;4.30;1.95;;;;;;;10.81;36.10;102375.34;1708705;84;21910;-55
2021/10/25 13:00:22;;;;;;;22.45;12.30;;;;;;;10.89;35.96;102379.69;1710221;82;21345;-54
2021/10/25 13:03:35;;;;;;;14.20;6.58;;;;;;;10.94;35.64;102365.10;1707417;82;21597;-55
2021/10/25 13:06:41;;;;;;;41.77;18.70;;;;;;;10.84;35.57;102373.23;1709037;84;21192;-56
2021/10/25 13:10:01;;;;;;;38.45;17.57;;;;;;;10.70;35.88;102365.30;1705642;84;21307;-54
2021/10/25 13:13:11;;;;;;;12.15;5.47;;;;;;;10.69;36.07;102370.39;1705210;82;21279;-55
2021/10/25 13:16:23;;;;;;;12.55;5.70;;;;;;;10.70;35.97;102363.93;1669673;84;21181;-56
2021/10/25 13:19:34;;;;;;;16.30;7.30;;;;;;;10.78;36.05;102368.76;1681223;84;21864;-56
2021/10/25 13:22:42;;;;;;;8.68;4.15;;;;;;;10.84;35.96;102367.75;1695953;84;21208;-57
2021/10/25 13:25:49;;;;;;;6.05;2.92;;;;;;;10.77;35.65;102365.14;1655956;86;21800;-57
2021/10/25 13:28:55;;;;;;;11.85;4.60;;;;;;;10.69;35.67;102362.17;1710756;82;21231;-57
2021/10/25 13:32:01;;;;;;;15.08;5.20;;;;;;;10.66;36.28;102364.28;1709047;84;21410;-58
2021/10/25 13:35:07;;;;;;;12.63;5.47;;;;;;;10.68;36.30;102363.17;1696408;82;21188;-57
2021/10/25 13:38:12;;;;;;;21.37;8.45;;;;;;;10.65;36.04;102362.55;1732611;81;21219;-57
2021/10/25 13:41:19;;;;;;;12.53;4.95;;;;;;;10.45;35.70;102362.34;1686220;84;21204;-56
2021/10/25 13:44:25;;;;;;;6.05;2.70;;;;;;;10.28;35.97;102362.88;1709468;82;21227;-56
2021/10/25 13:47:34;;;;;;;10.78;4.67;;;;;;;10.24;36.05;102366.84;1708821;81;21204;-58
2021/10/25 13:50:40;;;;;;;6.22;2.70;;;;;;;10.22;36.23;102362.50;1712206;84;21169;-59
2021/10/25 13:53:45;;;;;;;11.03;2.83;;;;;;;10.11;36.14;102365.24;1711935;82;21327;-59
2021/10/25 13:56:49;;;;;;;5.05;2.00;;;;;;;10.02;36.22;102365.96;1711069;83;21727;-58
2021/10/25 13:59:57;;;;;;;4.90;2.20;;;;;;;9.96;36.28;102368.68;1710533;84;21219;-59
2021/10/25 14:03:01;;;;;;;6.58;2.58;;;;;;;9.91;36.34;102368.17;1681136;84;21223;-58
2021/10/25 14:06:09;;;;;;;5.80;2.42;;;;;;;9.85;36.53;102371.41;1720768;82;21195;-60
2021/10/25 14:09:14;;;;;;;5.83;3.00;;;;;;;9.76;36.69;102372.64;1700657;82;21208;-59
2021/10/25 14:12:23;;;;;;;11.93;3.98;;;;;;;9.67;36.93;102367.39;1710965;83;21702;-59
2021/10/25 14:15:30;;;;;;;58.60;25.32;;;;;;;9.60;36.94;102370.25;1710855;83;21815;-59
2021/10/25 14:18:36;;;;;;;55.00;24.90;;;;;;;9.52;36.97;102369.98;1711421;82;21756;-59
2021/10/25 14:21:42;;;;;;;58.87;25.10;;;;;;;9.37;37.49;102373.91;1690781;84;21717;-58
2021/10/25 14:24:48;;;;;;;55.65;23.02;;;;;;;9.26;38.75;102367.55;1711206;82;21168;-58
2021/10/25 14:27:52;;;;;;;64.27;29.60;;;;;;;9.10;39.55;102364.63;1702255;84;21208;-59
2021/10/25 14:30:57;;;;;;;63.02;31.25;;;;;;;8.92;40.28;102364.69;1706972;82;21187;-59
2021/10/25 14:34:04;;;;;;;60.95;28.45;;;;;;;8.74;41.16;102376.11;1710074;82;21263;-58
2021/10/25 14:37:10;;;;;;;66.12;29.35;;;;;;;8.53;41.52;102375.02;1724702;82;21223;-59
2021/10/25 14:40:23;;;;;;;58.63;28.55;;;;;;;8.30;42.09;102376.71;1710081;82;21549;-59
2021/10/25 14:43:35;;;;;;;59.05;28.35;;;;;;;8.10;42.93;102371.81;1690523;84;21731;-59
2021/10/25 14:46:50;;;;;;;57.78;26.52;;;;;;;7.91;43.47;102370.52;1709791;83;21203;-59
2021/10/25 14:56:27;;;;;;;67.67;25.37;;;;;;;7.32;45.49;102382.44;1684122;85;21259;-58
2021/10/25 14:59:33;;;;;;;60.17;24.90;;;;;;;7.11;45.84;102377.09;1672358;85;21244;-58
2021/10/25 15:02:38;;;;;;;64.82;25.27;;;;;;;6.94;46.29;102391.48;1713434;83;21708;-58
2021/10/25 15:05:44;;;;;;;65.55;26.20;;;;;;;6.76;46.75;102383.17;1712606;83;21816;-58
2021/10/25 15:08:49;;;;;;;72.20;29.55;;;;;;;6.59;47.49;102380.23;1711627;83;22029;-57
2021/10/25 15:11:59;;;;;;;70.45;28.20;;;;;;;6.45;48.05;102384.36;1685322;85;21250;-57
2021/10/25 15:15:04;;;;;;;69.05;26.60;;;;;;;6.33;48.38;102392.45;1686465;83;21827;-57
2021/10/25 15:18:12;;;;;;;98.17;41.15;;;;;;;6.20;48.68;102389.62;1685747;83;21215;-58
2021/10/25 15:21:19;;;;;;;116.77;51.60;;;;;;;6.08;49.05;102395.86;1686026;85;21187;-57
2021/10/25 15:24:24;;;;;;;121.17;52.27;;;;;;;5.92;49.45;102400.52;1683729;84;21231;-58
2021/10/25 15:27:30;;;;;;;135.80;59.20;;;;;;;5.76;49.88;102404.66;1685159;84;21521;-58
2021/10/25 15:30:35;;;;;;;159.60;64.75;;;;;;;5.60;50.16;102401.62;1662544;85;21240;-57
2021/10/25 15:33:40;;;;;;;136.47;57.73;;;;;;;5.47;50.81;102395.22;1685139;83;22151;-58
2021/10/25 15:36:47;;;;;;;134.67;53.38;;;;;;;5.37;51.62;102404.89;1686192;85;21724;-58
2021/10/25 15:39:52;;;;;;;141.97;60.12;;;;;;;5.23;52.20;102402.14;1686894;83;21615;-58
2021/10/25 15:42:59;;;;;;;152.78;66.35;;;;;;;5.12;52.70;102401.91;1687537;83;21207;-58
2021/10/25 15:46:07;;;;;;;170.22;68.52;;;;;;;5.02;53.31;102405.66;1675494;85;21311;-59
2021/10/25 15:49:15;;;;;;;186.47;77.60;;;;;;;4.92;53.57;102409.86;1716012;82;21275;-62
2021/10/25 15:52:21;;;;;;;196.20;80.05;;;;;;;4.83;53.63;102415.84;1710323;83;21183;-59
2021/10/25 15:55:28;;;;;;;229.32;91.12;;;;;;;4.77;54.17;102424.34;1656223;85;21284;-58
2021/10/25 15:58:33;;;;;;;280.98;112.15;;;;;;;4.72;54.53;102416.06;1707785;84;21228;-58
2021/10/25 16:01:39;;;;;;;301.37;116.10;;;;;;;4.67;54.70;102427.66;1656924;85;21228;-58
2021/10/25 16:04:45;;;;;;;352.50;134.05;;;;;;;4.60;54.89;102428.48;1709735;82;21795;-59
2021/10/25 16:07:56;;;;;;;467.10;197.37;;;;;;;4.52;55.27;102426.70;1658963;85;21237;-59
2021/10/25 16:11:02;;;;;;;460.70;187.27;;;;;;;4.43;55.61;102424.52;1710926;83;21191;-59
2021/10/25 16:14:08;;;;;;;534.90;232.75;;;;;;;4.32;55.93;102424.25;1656455;85;21244;-59
2021/10/25 16:17:13;;;;;;;619.75;287.93;;;;;;;4.19;56.12;102422.70;1710541;84;21187;-59